sensor_id;sensor_type;location;lat;lon;timestamp;temperature;humidity
46366;DHT22;32073;49.166;8.076;2023-06-04T00:01:57;20.70;34.50
46366;DHT22;32073;49.166;8.076;2023-06-04T00:05:57;20.70;34.60
46366;DHT22;32073;49.166;8.076;2023-06-04T00:09:58;20.60;34.60
46366;DHT22;32073;49.166;8.076;2023-06-04T00:13:59;20.60;34.70
46366;DHT22;32073;49.166;8.076;2023-06-04T00:18:00;20.60;34.70
46366;DHT22;32073;49.166;8.076;2023-06-04T00:22:01;20.50;34.70
46366;DHT22;32073;49.166;8.076;2023-06-04T00:26:01;20.40;34.70
46366;DHT22;32073;49.166;8.076;2023-06-04T00:30:04;20.40;34.70
46366;DHT22;32073;49.166;8.076;2023-06-04T00:34:05;20.40;34.70
46366;DHT22;32073;49.166;8.076;2023-06-04T00:38:06;20.40;34.70
46366;DHT22;32073;49.166;8.076;2023-06-04T00:42:06;20.30;34.60
46366;DHT22;32073;49.166;8.076;2023-06-04T00:46:07;20.30;34.60
46366;DHT22;32073;49.166;8.076;2023-06-04T00:50:09;20.30;34.70
46366;DHT22;32073;49.166;8.076;2023-06-04T00:54:10;20.20;34.60
46366;DHT22;32073;49.166;8.076;2023-06-04T00:58:13;20.20;34.60
46366;DHT22;32073;49.166;8.076;2023-06-04T01:02:21;20.10;34.60
46366;DHT22;32073;49.166;8.076;2023-06-04T01:06:43;20.20;34.70
46366;DHT22;32073;49.166;8.076;2023-06-04T01:10:54;20.10;34.60
46366;DHT22;32073;49.166;8.076;2023-06-04T01:14:55;20.10;34.60
46366;DHT22;32073;49.166;8.076;2023-06-04T01:18:58;20.10;34.70
46366;DHT22;32073;49.166;8.076;2023-06-04T01:27:36;19.90;34.60
46366;DHT22;32073;49.166;8.076;2023-06-04T01:31:37;19.90;34.60
46366;DHT22;32073;49.166;8.076;2023-06-04T01:35:38;19.90;34.70
46366;DHT22;32073;49.166;8.076;2023-06-04T01:39:39;19.80;34.70
46366;DHT22;32073;49.166;8.076;2023-06-04T01:43:40;19.80;34.70
46366;DHT22;32073;49.166;8.076;2023-06-04T01:47:41;19.70;34.70
46366;DHT22;32073;49.166;8.076;2023-06-04T01:51:42;19.70;34.70
46366;DHT22;32073;49.166;8.076;2023-06-04T01:55:42;19.60;34.70
46366;DHT22;32073;49.166;8.076;2023-06-04T01:59:43;19.60;34.70
46366;DHT22;32073;49.166;8.076;2023-06-04T02:03:45;19.50;34.70
46366;DHT22;32073;49.166;8.076;2023-06-04T02:07:46;19.50;34.70
46366;DHT22;32073;49.166;8.076;2023-06-04T02:11:48;19.50;34.80
46366;DHT22;32073;49.166;8.076;2023-06-04T02:15:48;19.50;34.90
46366;DHT22;32073;49.166;8.076;2023-06-04T02:19:49;19.40;34.80
46366;DHT22;32073;49.166;8.076;2023-06-04T02:23:50;19.40;34.80
46366;DHT22;32073;49.166;8.076;2023-06-04T02:27:50;19.30;34.80
46366;DHT22;32073;49.166;8.076;2023-06-04T02:31:51;19.30;34.90
46366;DHT22;32073;49.166;8.076;2023-06-04T02:35:52;19.30;34.90
46366;DHT22;32073;49.166;8.076;2023-06-04T02:39:53;19.20;34.90
46366;DHT22;32073;49.166;8.076;2023-06-04T02:43:53;19.20;35.00
46366;DHT22;32073;49.166;8.076;2023-06-04T02:47:54;19.20;35.70
46366;DHT22;32073;49.166;8.076;2023-06-04T02:51:54;19.10;35.10
46366;DHT22;32073;49.166;8.076;2023-06-04T02:55:55;19.00;35.10
46366;DHT22;32073;49.166;8.076;2023-06-04T02:59:56;19.00;35.10
46366;DHT22;32073;49.166;8.076;2023-06-04T03:03:57;19.00;35.20
46366;DHT22;32073;49.166;8.076;2023-06-04T03:07:58;18.90;35.80
46366;DHT22;32073;49.166;8.076;2023-06-04T03:12:00;19.00;35.30
46366;DHT22;32073;49.166;8.076;2023-06-04T03:16:02;18.80;35.20
46366;DHT22;32073;49.166;8.076;2023-06-04T03:20:03;18.80;35.30
46366;DHT22;32073;49.166;8.076;2023-06-04T03:24:06;18.70;35.30
46366;DHT22;32073;49.166;8.076;2023-06-04T03:28:07;18.70;35.30
46366;DHT22;32073;49.166;8.076;2023-06-04T03:32:08;18.60;35.30
46366;DHT22;32073;49.166;8.076;2023-06-04T03:36:08;18.60;35.30
46366;DHT22;32073;49.166;8.076;2023-06-04T03:40:09;18.50;35.40
46366;DHT22;32073;49.166;8.076;2023-06-04T03:44:13;18.50;35.40
46366;DHT22;32073;49.166;8.076;2023-06-04T03:48:14;18.40;35.40
46366;DHT22;32073;49.166;8.076;2023-06-04T03:52:15;18.40;35.40
46366;DHT22;32073;49.166;8.076;2023-06-04T03:56:16;18.40;35.50
46366;DHT22;32073;49.166;8.076;2023-06-04T04:00:16;18.40;35.60
46366;DHT22;32073;49.166;8.076;2023-06-04T04:04:18;18.40;35.70
46366;DHT22;32073;49.166;8.076;2023-06-04T04:08:19;18.30;35.60
46366;DHT22;32073;49.166;8.076;2023-06-04T04:12:21;18.30;35.70
46366;DHT22;32073;49.166;8.076;2023-06-04T04:16:22;18.40;35.80
46366;DHT22;32073;49.166;8.076;2023-06-04T04:20:22;18.40;35.80
46366;DHT22;32073;49.166;8.076;2023-06-04T04:24:27;18.40;35.80
46366;DHT22;32073;49.166;8.076;2023-06-04T04:28:28;18.50;35.90
46366;DHT22;32073;49.166;8.076;2023-06-04T04:32:28;18.40;35.80
46366;DHT22;32073;49.166;8.076;2023-06-04T04:36:29;18.50;35.90
46366;DHT22;32073;49.166;8.076;2023-06-04T04:40:30;18.50;35.80
46366;DHT22;32073;49.166;8.076;2023-06-04T04:44:31;18.60;35.90
46366;DHT22;32073;49.166;8.076;2023-06-04T04:48:32;18.60;35.90
46366;DHT22;32073;49.166;8.076;2023-06-04T04:52:33;18.70;35.90
46366;DHT22;32073;49.166;8.076;2023-06-04T04:56:34;18.70;35.90
46366;DHT22;32073;49.166;8.076;2023-06-04T05:00:35;18.80;35.90
46366;DHT22;32073;49.166;8.076;2023-06-04T05:04:36;18.80;35.80
46366;DHT22;32073;49.166;8.076;2023-06-04T05:08:36;18.90;36.40
46366;DHT22;32073;49.166;8.076;2023-06-04T05:12:37;19.00;35.90
46366;DHT22;32073;49.166;8.076;2023-06-04T05:16:38;19.20;36.40
46366;DHT22;32073;49.166;8.076;2023-06-04T05:20:41;19.60;36.90
46366;DHT22;32073;49.166;8.076;2023-06-04T05:24:41;20.20;36.90
46366;DHT22;32073;49.166;8.076;2023-06-04T05:28:42;20.80;36.50
46366;DHT22;32073;49.166;8.076;2023-06-04T05:32:44;21.50;36.10
46366;DHT22;32073;49.166;8.076;2023-06-04T05:36:44;21.90;35.60
46366;DHT22;32073;49.166;8.076;2023-06-04T05:40:45;22.30;34.90
46366;DHT22;32073;49.166;8.076;2023-06-04T05:44:46;22.80;34.70
46366;DHT22;32073;49.166;8.076;2023-06-04T05:48:47;23.00;34.20
46366;DHT22;32073;49.166;8.076;2023-06-04T05:52:48;23.30;33.70
46366;DHT22;32073;49.166;8.076;2023-06-04T05:56:48;23.30;33.40
46366;DHT22;32073;49.166;8.076;2023-06-04T06:00:49;23.20;33.30
46366;DHT22;32073;49.166;8.076;2023-06-04T06:04:50;23.20;33.10
46366;DHT22;32073;49.166;8.076;2023-06-04T06:08:52;23.10;32.90
46366;DHT22;32073;49.166;8.076;2023-06-04T06:12:53;23.00;32.70
46366;DHT22;32073;49.166;8.076;2023-06-04T06:16:53;22.80;32.70
46366;DHT22;32073;49.166;8.076;2023-06-04T06:20:54;22.60;32.60
46366;DHT22;32073;49.166;8.076;2023-06-04T06:24:55;22.50;32.60
46366;DHT22;32073;49.166;8.076;2023-06-04T06:28:55;22.30;32.30
46366;DHT22;32073;49.166;8.076;2023-06-04T06:32:56;22.10;32.30
46366;DHT22;32073;49.166;8.076;2023-06-04T06:36:57;21.90;32.50
46366;DHT22;32073;49.166;8.076;2023-06-04T06:40:58;21.80;32.60
46366;DHT22;32073;49.166;8.076;2023-06-04T06:44:59;21.70;32.60
46366;DHT22;32073;49.166;8.076;2023-06-04T06:48:59;21.60;32.70
46366;DHT22;32073;49.166;8.076;2023-06-04T06:53:00;21.50;32.80
46366;DHT22;32073;49.166;8.076;2023-06-04T06:57:01;21.50;32.80
46366;DHT22;32073;49.166;8.076;2023-06-04T07:01:09;21.40;32.70
46366;DHT22;32073;49.166;8.076;2023-06-04T07:05:10;21.40;32.60
46366;DHT22;32073;49.166;8.076;2023-06-04T07:09:11;21.40;32.70
46366;DHT22;32073;49.166;8.076;2023-06-04T07:13:12;21.40;32.50
46366;DHT22;32073;49.166;8.076;2023-06-04T07:17:13;21.30;32.60
46366;DHT22;32073;49.166;8.076;2023-06-04T07:21:13;21.30;32.50
46366;DHT22;32073;49.166;8.076;2023-06-04T07:25:14;21.30;33.30
46366;DHT22;32073;49.166;8.076;2023-06-04T07:29:15;21.30;32.80
46366;DHT22;32073;49.166;8.076;2023-06-04T07:33:16;21.30;32.90
46366;DHT22;32073;49.166;8.076;2023-06-04T07:37:17;21.40;33.00
46366;DHT22;32073;49.166;8.076;2023-06-04T07:41:18;21.50;33.00
46366;DHT22;32073;49.166;8.076;2023-06-04T07:45:19;21.50;33.00
46366;DHT22;32073;49.166;8.076;2023-06-04T07:49:19;21.60;33.20
46366;DHT22;32073;49.166;8.076;2023-06-04T07:53:20;21.60;33.20
46366;DHT22;32073;49.166;8.076;2023-06-04T07:57:21;21.70;33.40
46366;DHT22;32073;49.166;8.076;2023-06-04T08:01:22;21.70;33.50
46366;DHT22;32073;49.166;8.076;2023-06-04T08:05:24;21.80;33.60
46366;DHT22;32073;49.166;8.076;2023-06-04T08:09:25;21.90;33.70
46366;DHT22;32073;49.166;8.076;2023-06-04T08:13:28;21.90;33.50
46366;DHT22;32073;49.166;8.076;2023-06-04T08:17:30;21.90;33.50
46366;DHT22;32073;49.166;8.076;2023-06-04T08:21:31;22.10;33.70
46366;DHT22;32073;49.166;8.076;2023-06-04T08:25:31;22.10;33.80
46366;DHT22;32073;49.166;8.076;2023-06-04T08:29:33;22.20;34.00
46366;DHT22;32073;49.166;8.076;2023-06-04T08:33:33;22.30;34.00
46366;DHT22;32073;49.166;8.076;2023-06-04T08:37:35;22.30;34.00
46366;DHT22;32073;49.166;8.076;2023-06-04T08:41:44;22.40;34.00
46366;DHT22;32073;49.166;8.076;2023-06-04T08:45:49;22.50;34.00
46366;DHT22;32073;49.166;8.076;2023-06-04T08:49:52;22.50;34.10
46366;DHT22;32073;49.166;8.076;2023-06-04T08:53:53;22.60;34.10
46366;DHT22;32073;49.166;8.076;2023-06-04T08:57:55;22.70;34.00
46366;DHT22;32073;49.166;8.076;2023-06-04T09:01:56;22.80;34.10
46366;DHT22;32073;49.166;8.076;2023-06-04T09:05:58;22.80;34.20
46366;DHT22;32073;49.166;8.076;2023-06-04T09:10:00;22.90;34.30
46366;DHT22;32073;49.166;8.076;2023-06-04T09:14:02;23.00;34.30
46366;DHT22;32073;49.166;8.076;2023-06-04T09:18:05;23.20;34.30
46366;DHT22;32073;49.166;8.076;2023-06-04T09:22:05;23.30;34.30
46366;DHT22;32073;49.166;8.076;2023-06-04T09:26:07;23.30;34.20
46366;DHT22;32073;49.166;8.076;2023-06-04T09:30:11;23.40;34.10
46366;DHT22;32073;49.166;8.076;2023-06-04T09:34:12;23.60;34.00
46366;DHT22;32073;49.166;8.076;2023-06-04T09:38:13;23.60;34.00
46366;DHT22;32073;49.166;8.076;2023-06-04T09:42:14;23.70;33.80
46366;DHT22;32073;49.166;8.076;2023-06-04T09:46:16;23.90;34.10
46366;DHT22;32073;49.166;8.076;2023-06-04T09:50:25;23.80;33.60
46366;DHT22;32073;49.166;8.076;2023-06-04T09:54:36;24.00;33.70
46366;DHT22;32073;49.166;8.076;2023-06-04T09:58:38;24.10;33.50
46366;DHT22;32073;49.166;8.076;2023-06-04T10:02:39;24.20;33.40
46366;DHT22;32073;49.166;8.076;2023-06-04T10:06:41;24.20;33.30
46366;DHT22;32073;49.166;8.076;2023-06-04T10:10:42;24.30;33.20
46366;DHT22;32073;49.166;8.076;2023-06-04T10:15:07;24.40;32.90
46366;DHT22;32073;49.166;8.076;2023-06-04T10:19:14;24.50;32.70
46366;DHT22;32073;49.166;8.076;2023-06-04T10:23:15;24.60;32.60
46366;DHT22;32073;49.166;8.076;2023-06-04T10:27:18;24.80;33.40
46366;DHT22;32073;49.166;8.076;2023-06-04T10:31:20;24.90;32.50
46366;DHT22;32073;49.166;8.076;2023-06-04T10:35:34;24.90;32.60
46366;DHT22;32073;49.166;8.076;2023-06-04T10:39:35;25.10;32.10
46366;DHT22;32073;49.166;8.076;2023-06-04T10:43:37;25.30;32.10
46366;DHT22;32073;49.166;8.076;2023-06-04T10:47:37;25.40;31.40
46366;DHT22;32073;49.166;8.076;2023-06-04T10:51:41;25.40;31.20
46366;DHT22;32073;49.166;8.076;2023-06-04T10:55:46;25.60;30.90
46366;DHT22;32073;49.166;8.076;2023-06-04T10:59:58;25.70;30.60
46366;DHT22;32073;49.166;8.076;2023-06-04T11:04:00;25.70;30.10
46366;DHT22;32073;49.166;8.076;2023-06-04T11:08:02;25.70;29.80
46366;DHT22;32073;49.166;8.076;2023-06-04T11:12:05;25.70;30.00
46366;DHT22;32073;49.166;8.076;2023-06-04T11:16:20;25.80;30.00
46366;DHT22;32073;49.166;8.076;2023-06-04T11:20:23;25.80;30.00
46366;DHT22;32073;49.166;8.076;2023-06-04T11:24:24;26.00;30.20
46366;DHT22;32073;49.166;8.076;2023-06-04T11:28:24;26.00;29.90
46366;DHT22;32073;49.166;8.076;2023-06-04T11:32:26;26.10;29.60
46366;DHT22;32073;49.166;8.076;2023-06-04T11:36:28;26.10;29.70
46366;DHT22;32073;49.166;8.076;2023-06-04T11:40:30;26.20;29.50
46366;DHT22;32073;49.166;8.076;2023-06-04T11:44:31;26.20;29.50
46366;DHT22;32073;49.166;8.076;2023-06-04T11:48:32;26.20;29.50
46366;DHT22;32073;49.166;8.076;2023-06-04T11:52:33;26.40;29.50
46366;DHT22;32073;49.166;8.076;2023-06-04T11:56:34;26.40;29.40
46366;DHT22;32073;49.166;8.076;2023-06-04T12:00:35;26.30;29.50
46366;DHT22;32073;49.166;8.076;2023-06-04T12:04:36;26.40;29.30
46366;DHT22;32073;49.166;8.076;2023-06-04T12:08:51;26.50;29.40
46366;DHT22;32073;49.166;8.076;2023-06-04T12:12:56;26.60;29.40
46366;DHT22;32073;49.166;8.076;2023-06-04T12:16:58;26.60;29.20
46366;DHT22;32073;49.166;8.076;2023-06-04T12:21:00;26.70;29.50
46366;DHT22;32073;49.166;8.076;2023-06-04T12:25:00;26.70;29.30
46366;DHT22;32073;49.166;8.076;2023-06-04T12:29:11;26.80;29.20
46366;DHT22;32073;49.166;8.076;2023-06-04T12:33:12;26.90;29.40
46366;DHT22;32073;49.166;8.076;2023-06-04T12:37:13;26.80;29.30
46366;DHT22;32073;49.166;8.076;2023-06-04T12:41:14;26.80;29.40
46366;DHT22;32073;49.166;8.076;2023-06-04T12:45:15;27.00;29.40
46366;DHT22;32073;49.166;8.076;2023-06-04T12:49:16;27.00;29.20
46366;DHT22;32073;49.166;8.076;2023-06-04T12:53:16;27.00;29.30
46366;DHT22;32073;49.166;8.076;2023-06-04T12:57:17;27.10;29.40
46366;DHT22;32073;49.166;8.076;2023-06-04T13:01:17;27.10;29.50
46366;DHT22;32073;49.166;8.076;2023-06-04T13:05:18;27.30;29.70
46366;DHT22;32073;49.166;8.076;2023-06-04T13:09:19;27.30;29.60
46366;DHT22;32073;49.166;8.076;2023-06-04T13:13:20;27.40;29.40
46366;DHT22;32073;49.166;8.076;2023-06-04T13:17:21;27.40;29.20
46366;DHT22;32073;49.166;8.076;2023-06-04T13:21:22;27.40;29.20
46366;DHT22;32073;49.166;8.076;2023-06-04T13:25:23;27.40;29.10
46366;DHT22;32073;49.166;8.076;2023-06-04T13:29:24;27.40;29.20
46366;DHT22;32073;49.166;8.076;2023-06-04T13:33:24;27.50;29.20
46366;DHT22;32073;49.166;8.076;2023-06-04T13:37:25;27.50;29.20
46366;DHT22;32073;49.166;8.076;2023-06-04T13:41:26;27.40;29.10
46366;DHT22;32073;49.166;8.076;2023-06-04T13:45:27;27.50;29.00
46366;DHT22;32073;49.166;8.076;2023-06-04T13:49:27;27.60;28.90
46366;DHT22;32073;49.166;8.076;2023-06-04T13:53:28;27.70;28.90
46366;DHT22;32073;49.166;8.076;2023-06-04T13:57:29;27.60;28.90
46366;DHT22;32073;49.166;8.076;2023-06-04T14:01:29;27.60;28.90
46366;DHT22;32073;49.166;8.076;2023-06-04T14:05:30;27.70;28.70
46366;DHT22;32073;49.166;8.076;2023-06-04T14:09:30;27.70;28.90
46366;DHT22;32073;49.166;8.076;2023-06-04T14:13:31;27.80;28.80
46366;DHT22;32073;49.166;8.076;2023-06-04T14:17:32;27.80;28.70
46366;DHT22;32073;49.166;8.076;2023-06-04T14:21:34;27.90;28.70
46366;DHT22;32073;49.166;8.076;2023-06-04T14:25:35;27.80;28.50
46366;DHT22;32073;49.166;8.076;2023-06-04T14:29:37;27.90;28.50
46366;DHT22;32073;49.166;8.076;2023-06-04T14:33:37;27.90;28.20
46366;DHT22;32073;49.166;8.076;2023-06-04T14:37:38;27.90;28.00
46366;DHT22;32073;49.166;8.076;2023-06-04T14:41:39;27.90;27.80
46366;DHT22;32073;49.166;8.076;2023-06-04T14:45:39;28.00;27.80
46366;DHT22;32073;49.166;8.076;2023-06-04T14:49:40;27.90;27.70
46366;DHT22;32073;49.166;8.076;2023-06-04T14:53:41;27.90;27.60
46366;DHT22;32073;49.166;8.076;2023-06-04T14:57:42;27.90;27.40
46366;DHT22;32073;49.166;8.076;2023-06-04T15:01:42;27.90;27.30
46366;DHT22;32073;49.166;8.076;2023-06-04T15:05:43;27.80;27.10
46366;DHT22;32073;49.166;8.076;2023-06-04T15:09:44;27.80;27.30
46366;DHT22;32073;49.166;8.076;2023-06-04T15:13:45;27.80;27.40
46366;DHT22;32073;49.166;8.076;2023-06-04T15:17:46;27.80;27.20
46366;DHT22;32073;49.166;8.076;2023-06-04T15:21:47;27.80;27.10
46366;DHT22;32073;49.166;8.076;2023-06-04T15:25:48;27.80;26.90
46366;DHT22;32073;49.166;8.076;2023-06-04T15:29:48;27.70;26.90
46366;DHT22;32073;49.166;8.076;2023-06-04T15:33:49;27.80;26.80
46366;DHT22;32073;49.166;8.076;2023-06-04T15:37:49;27.70;26.90
46366;DHT22;32073;49.166;8.076;2023-06-04T15:41:50;27.70;26.80
46366;DHT22;32073;49.166;8.076;2023-06-04T15:45:51;27.70;26.80
46366;DHT22;32073;49.166;8.076;2023-06-04T15:49:51;27.70;26.90
46366;DHT22;32073;49.166;8.076;2023-06-04T15:53:52;27.70;26.70
46366;DHT22;32073;49.166;8.076;2023-06-04T15:57:53;27.70;26.60
46366;DHT22;32073;49.166;8.076;2023-06-04T16:01:53;27.80;26.60
46366;DHT22;32073;49.166;8.076;2023-06-04T16:05:54;27.70;26.40
46366;DHT22;32073;49.166;8.076;2023-06-04T16:09:55;27.60;26.30
46366;DHT22;32073;49.166;8.076;2023-06-04T16:13:55;27.60;26.30
46366;DHT22;32073;49.166;8.076;2023-06-04T16:17:56;27.60;26.00
46366;DHT22;32073;49.166;8.076;2023-06-04T16:21:57;27.60;26.20
46366;DHT22;32073;49.166;8.076;2023-06-04T16:25:58;27.60;26.20
46366;DHT22;32073;49.166;8.076;2023-06-04T16:29:58;27.50;26.10
46366;DHT22;32073;49.166;8.076;2023-06-04T16:33:59;27.50;26.10
46366;DHT22;32073;49.166;8.076;2023-06-04T16:38:00;27.40;26.10
46366;DHT22;32073;49.166;8.076;2023-06-04T16:42:01;27.50;26.00
46366;DHT22;32073;49.166;8.076;2023-06-04T16:46:03;27.40;26.00
46366;DHT22;32073;49.166;8.076;2023-06-04T16:50:05;27.40;25.80
46366;DHT22;32073;49.166;8.076;2023-06-04T16:54:06;27.30;25.60
46366;DHT22;32073;49.166;8.076;2023-06-04T16:58:07;27.30;25.70
46366;DHT22;32073;49.166;8.076;2023-06-04T17:02:07;27.30;25.90
46366;DHT22;32073;49.166;8.076;2023-06-04T17:06:08;27.20;25.60
46366;DHT22;32073;49.166;8.076;2023-06-04T17:10:09;27.20;25.70
46366;DHT22;32073;49.166;8.076;2023-06-04T17:14:11;27.20;25.50
46366;DHT22;32073;49.166;8.076;2023-06-04T17:18:12;27.20;25.60
46366;DHT22;32073;49.166;8.076;2023-06-04T17:22:12;27.20;25.60
46366;DHT22;32073;49.166;8.076;2023-06-04T17:26:14;27.20;25.50
46366;DHT22;32073;49.166;8.076;2023-06-04T17:30:15;27.20;25.60
46366;DHT22;32073;49.166;8.076;2023-06-04T17:34:17;27.20;25.60
46366;DHT22;32073;49.166;8.076;2023-06-04T17:38:17;27.20;25.50
46366;DHT22;32073;49.166;8.076;2023-06-04T17:42:18;27.20;25.50
46366;DHT22;32073;49.166;8.076;2023-06-04T17:46:18;27.20;25.60
46366;DHT22;32073;49.166;8.076;2023-06-04T17:50:19;27.20;25.70
46366;DHT22;32073;49.166;8.076;2023-06-04T17:54:20;27.20;25.70
46366;DHT22;32073;49.166;8.076;2023-06-04T17:58:20;27.20;25.70
46366;DHT22;32073;49.166;8.076;2023-06-04T18:02:21;27.20;25.80
46366;DHT22;32073;49.166;8.076;2023-06-04T18:06:22;27.10;25.80
46366;DHT22;32073;49.166;8.076;2023-06-04T18:10:23;27.10;26.00
46366;DHT22;32073;49.166;8.076;2023-06-04T18:14:24;27.10;26.00
46366;DHT22;32073;49.166;8.076;2023-06-04T18:18:24;27.20;26.00
46366;DHT22;32073;49.166;8.076;2023-06-04T18:22:25;27.10;25.90
46366;DHT22;32073;49.166;8.076;2023-06-04T18:26:25;27.10;25.80
46366;DHT22;32073;49.166;8.076;2023-06-04T18:30:26;27.10;26.00
46366;DHT22;32073;49.166;8.076;2023-06-04T18:34:28;27.00;26.00
46366;DHT22;32073;49.166;8.076;2023-06-04T18:38:29;26.90;26.10
46366;DHT22;32073;49.166;8.076;2023-06-04T18:42:29;27.00;26.20
46366;DHT22;32073;49.166;8.076;2023-06-04T18:46:30;26.90;26.10
46366;DHT22;32073;49.166;8.076;2023-06-04T18:50:31;26.80;26.20
46366;DHT22;32073;49.166;8.076;2023-06-04T18:54:31;26.80;26.30
46366;DHT22;32073;49.166;8.076;2023-06-04T18:58:33;26.70;26.30
46366;DHT22;32073;49.166;8.076;2023-06-04T19:02:37;26.60;26.40
46366;DHT22;32073;49.166;8.076;2023-06-04T19:06:38;26.50;26.50
46366;DHT22;32073;49.166;8.076;2023-06-04T19:10:39;26.30;26.40
46366;DHT22;32073;49.166;8.076;2023-06-04T19:14:40;26.30;26.50
46366;DHT22;32073;49.166;8.076;2023-06-04T19:18:40;26.10;26.40
46366;DHT22;32073;49.166;8.076;2023-06-04T19:22:41;26.10;26.50
46366;DHT22;32073;49.166;8.076;2023-06-04T19:26:42;25.80;26.40
46366;DHT22;32073;49.166;8.076;2023-06-04T19:30:43;25.70;26.40
46366;DHT22;32073;49.166;8.076;2023-06-04T19:34:44;25.70;26.40
46366;DHT22;32073;49.166;8.076;2023-06-04T19:38:48;25.50;26.40
46366;DHT22;32073;49.166;8.076;2023-06-04T19:42:49;25.30;26.40
46366;DHT22;32073;49.166;8.076;2023-06-04T19:46:50;25.20;26.50
46366;DHT22;32073;49.166;8.076;2023-06-04T19:50:50;25.10;26.50
46366;DHT22;32073;49.166;8.076;2023-06-04T19:54:51;24.90;26.40
46366;DHT22;32073;49.166;8.076;2023-06-04T19:58:52;24.80;26.50
46366;DHT22;32073;49.166;8.076;2023-06-04T20:02:53;24.70;26.50
46366;DHT22;32073;49.166;8.076;2023-06-04T20:06:54;24.60;26.60
46366;DHT22;32073;49.166;8.076;2023-06-04T20:10:55;24.50;26.60
46366;DHT22;32073;49.166;8.076;2023-06-04T20:14:55;24.30;26.60
46366;DHT22;32073;49.166;8.076;2023-06-04T20:18:56;24.20;26.60
46366;DHT22;32073;49.166;8.076;2023-06-04T20:22:57;24.10;26.60
46366;DHT22;32073;49.166;8.076;2023-06-04T20:26:57;24.10;26.70
46366;DHT22;32073;49.166;8.076;2023-06-04T20:30:58;24.00;27.20
46366;DHT22;32073;49.166;8.076;2023-06-04T20:34:59;24.00;26.80
46366;DHT22;32073;49.166;8.076;2023-06-04T20:38:59;23.90;26.80
46366;DHT22;32073;49.166;8.076;2023-06-04T20:43:00;23.80;26.80
46366;DHT22;32073;49.166;8.076;2023-06-04T20:47:01;23.70;26.90
46366;DHT22;32073;49.166;8.076;2023-06-04T20:51:02;23.70;27.00
46366;DHT22;32073;49.166;8.076;2023-06-04T20:55:03;23.60;27.00
46366;DHT22;32073;49.166;8.076;2023-06-04T20:59:03;23.60;27.20
46366;DHT22;32073;49.166;8.076;2023-06-04T21:03:04;23.40;27.10
46366;DHT22;32073;49.166;8.076;2023-06-04T21:07:05;23.40;27.20
46366;DHT22;32073;49.166;8.076;2023-06-04T21:11:05;23.40;27.30
46366;DHT22;32073;49.166;8.076;2023-06-04T21:15:06;23.30;27.30
46366;DHT22;32073;49.166;8.076;2023-06-04T21:19:07;23.20;27.40
46366;DHT22;32073;49.166;8.076;2023-06-04T21:23:08;23.10;27.50
46366;DHT22;32073;49.166;8.076;2023-06-04T21:27:08;23.10;27.60
46366;DHT22;32073;49.166;8.076;2023-06-04T21:31:10;23.00;27.70
46366;DHT22;32073;49.166;8.076;2023-06-04T21:35:11;22.90;27.70
46366;DHT22;32073;49.166;8.076;2023-06-04T21:39:12;22.80;27.80
46366;DHT22;32073;49.166;8.076;2023-06-04T21:43:13;22.80;28.00
46366;DHT22;32073;49.166;8.076;2023-06-04T21:47:13;22.80;28.10
46366;DHT22;32073;49.166;8.076;2023-06-04T21:51:14;22.70;28.20
46366;DHT22;32073;49.166;8.076;2023-06-04T21:55:15;22.60;28.20
46366;DHT22;32073;49.166;8.076;2023-06-04T21:59:16;22.60;28.30
46366;DHT22;32073;49.166;8.076;2023-06-04T22:03:16;22.50;28.50
46366;DHT22;32073;49.166;8.076;2023-06-04T22:07:17;22.50;28.50
46366;DHT22;32073;49.166;8.076;2023-06-04T22:11:17;22.40;28.60
46366;DHT22;32073;49.166;8.076;2023-06-04T22:15:18;22.40;28.60
46366;DHT22;32073;49.166;8.076;2023-06-04T22:19:19;22.30;28.70
46366;DHT22;32073;49.166;8.076;2023-06-04T22:23:22;22.30;28.70
46366;DHT22;32073;49.166;8.076;2023-06-04T22:27:22;22.20;28.70
46366;DHT22;32073;49.166;8.076;2023-06-04T22:31:23;22.20;28.80
46366;DHT22;32073;49.166;8.076;2023-06-04T22:35:24;22.10;28.80
46366;DHT22;32073;49.166;8.076;2023-06-04T22:39:24;22.10;28.80
46366;DHT22;32073;49.166;8.076;2023-06-04T22:43:25;22.00;28.80
46366;DHT22;32073;49.166;8.076;2023-06-04T22:47:25;22.00;28.90
46366;DHT22;32073;49.166;8.076;2023-06-04T22:51:26;22.00;28.90
46366;DHT22;32073;49.166;8.076;2023-06-04T22:55:27;21.90;28.90
46366;DHT22;32073;49.166;8.076;2023-06-04T22:59:27;21.90;29.00
46366;DHT22;32073;49.166;8.076;2023-06-04T23:03:28;21.80;29.00
46366;DHT22;32073;49.166;8.076;2023-06-04T23:07:29;21.70;29.00
46366;DHT22;32073;49.166;8.076;2023-06-04T23:11:29;21.70;29.10
46366;DHT22;32073;49.166;8.076;2023-06-04T23:15:30;21.60;29.10
46366;DHT22;32073;49.166;8.076;2023-06-04T23:19:30;21.60;29.10
46366;DHT22;32073;49.166;8.076;2023-06-04T23:23:31;21.60;29.20
46366;DHT22;32073;49.166;8.076;2023-06-04T23:27:32;21.50;29.20
46366;DHT22;32073;49.166;8.076;2023-06-04T23:31:33;21.50;29.20
46366;DHT22;32073;49.166;8.076;2023-06-04T23:35:33;21.40;29.30
46366;DHT22;32073;49.166;8.076;2023-06-04T23:39:34;21.40;29.30
46366;DHT22;32073;49.166;8.076;2023-06-04T23:43:34;21.30;29.30
46366;DHT22;32073;49.166;8.076;2023-06-04T23:47:35;21.30;29.30
46366;DHT22;32073;49.166;8.076;2023-06-04T23:51:36;21.20;29.40
46366;DHT22;32073;49.166;8.076;2023-06-04T23:55:36;21.20;29.90
46366;DHT22;32073;49.166;8.076;2023-06-04T23:59:39;21.20;29.40
